Portada
METAR-TAF:

METAR-TAF

Aeropuertos :

Luxemburgo, Luxemburgo

Aeropuerto de Luxemburgo Findel

latitud: 49-37N, longitud: 006-13E, altitud: 376 m

Observación

El informe se hizo hace 38 minutos, a las 21:20 UTC
Viento 9 kt del noreste
Temperatura 13°C
Humedad 82%
Presión 1022 hPa
Visibilidad 10 km o más
sin nubes por debajo de 1500 m y sin presencia de cumulonimbus.

METAR: ELLX 232120Z 04009KT CAVOK 13/10 Q1022 NOSIG

Hora: 23:58 (21:58 UTC)

Pronóstico

El informe se hizo hace 4 horas y 58 minutos, a las 17:00 UTC
Pronóstico válido del 23 a las 18 UTC al 24 a las 24 UTC
Viento 8 kt del este-noreste
Visibilidad 10 km o más
Nubes dispersas a una altura de 2500 ft
Temporalmente
del 24 a las 03 UTC al 24 a las 08 UTC
Viento 3 kt con dirección variable
Visibilidad: 3000 m
Nubes dispersas a una altura de 200 ft
neblina

TAF: ELLX 231700Z 2318/2424 06008KT 9999 SCT025 TEMPO 2403/2408 VRB03KT 3000 BR SCT002

Observaciones y pronósticos meteorológicos de más de 4000 aeropuertos (mensajes METAR y TAF).

Los puntos amarillos y rojos representan las estaciones disponibles.

Ponga el ratón en el punto deseado para ver el nombre de la estación.

Haga clic para ver las observaciones y los pronósticos meteorológicos.

Para cambiar el mapa : haga clic en los botones verdes con una cruz de color negro para hacer un zoom, en el botón verde con un guión para alejar o en las flechas verdes para mapas adyacentes.


METAR-TAF: